createdAt,value
2017-09-25T00:01:00.583Z,0
2017-09-25T00:02:09.779Z,0
2017-09-25T00:03:18.649Z,0
2017-09-25T00:04:27.193Z,0
2017-09-25T00:05:36.393Z,0
2017-09-25T00:06:45.260Z,0
2017-09-25T00:07:54.124Z,0
2017-09-25T00:09:03.000Z,0
2017-09-25T00:10:11.536Z,0
2017-09-25T00:11:20.446Z,0
2017-09-25T00:12:29.831Z,0
2017-09-25T00:13:38.703Z,0
2017-09-25T00:14:47.569Z,0
2017-09-25T00:15:56.114Z,0
2017-09-25T00:17:04.978Z,0
2017-09-25T00:18:13.528Z,0
2017-09-25T00:19:22.393Z,0
2017-09-25T00:20:30.938Z,0
2017-09-25T00:21:39.479Z,0
2017-09-25T00:22:48.348Z,0
2017-09-25T00:23:56.889Z,0
2017-09-25T00:25:05.759Z,0
2017-09-25T00:26:14.951Z,0
2017-09-25T00:27:24.149Z,0
2017-09-25T00:28:32.694Z,0
2017-09-25T00:29:41.557Z,0
2017-09-25T00:30:50.099Z,0
2017-09-25T00:31:58.643Z,0
2017-09-25T00:33:07.187Z,0
2017-09-25T00:34:16.054Z,0
2017-09-25T00:35:24.599Z,0
2017-09-25T00:36:33.467Z,0
2017-09-25T00:37:42.010Z,0
2017-09-25T00:38:51.203Z,0
2017-09-25T00:39:59.747Z,0
2017-09-25T00:41:08.295Z,0
2017-09-25T00:42:16.841Z,0
2017-09-25T00:43:25.381Z,0
2017-09-25T00:44:33.925Z,0
2017-09-25T00:45:42.792Z,0
2017-09-25T00:46:51.655Z,0
2017-09-25T00:48:00.196Z,0
2017-09-25T00:49:09.069Z,0
2017-09-25T00:50:17.615Z,0
2017-09-25T00:51:26.482Z,0
2017-09-25T00:52:35.027Z,0
2017-09-25T00:53:43.891Z,0
2017-09-25T00:54:52.757Z,0
2017-09-25T00:56:01.301Z,0
2017-09-25T00:57:10.500Z,0
2017-09-25T00:58:19.367Z,0
2017-09-25T00:59:27.908Z,0
2017-09-25T01:00:36.452Z,0
2017-09-25T01:01:44.998Z,0
2017-09-25T01:02:53.541Z,0
2017-09-25T01:04:02.408Z,0
2017-09-25T01:05:11.280Z,0
2017-09-25T01:06:19.822Z,0
2017-09-25T01:07:28.367Z,0
2017-09-25T01:08:36.913Z,0
2017-09-25T01:09:45.455Z,0
2017-09-25T01:10:54.000Z,0
2017-09-25T01:12:02.869Z,0
2017-09-25T01:13:11.413Z,0
2017-09-25T01:14:20.282Z,0
2017-09-25T01:15:29.149Z,0
2017-09-25T01:16:38.015Z,0
2017-09-25T01:17:46.557Z,0
2017-09-25T01:18:55.485Z,0
2017-09-25T01:20:04.026Z,0
2017-09-25T01:21:12.890Z,0
2017-09-25T01:22:21.756Z,0
2017-09-25T01:23:30.298Z,0
2017-09-25T01:24:38.844Z,0
2017-09-25T01:25:47.711Z,0
2017-09-25T01:26:56.583Z,0
2017-09-25T01:28:05.131Z,0
2017-09-25T01:29:13.668Z,0
2017-09-25T01:30:22.529Z,0
2017-09-25T01:31:31.073Z,0
2017-09-25T01:32:39.614Z,0
2017-09-25T01:33:48.476Z,0
2017-09-25T01:34:57.341Z,0
2017-09-25T01:36:05.886Z,0
2017-09-25T01:37:14.752Z,0
2017-09-25T01:38:23.940Z,0
2017-09-25T01:39:32.804Z,0
2017-09-25T01:40:41.666Z,0
2017-09-25T01:41:50.212Z,0
2017-09-25T01:42:59.076Z,0
2017-09-25T01:44:07.943Z,0
2017-09-25T01:45:17.134Z,0
2017-09-25T01:46:25.677Z,0
2017-09-25T01:47:34.541Z,0
2017-09-25T01:48:43.081Z,0
2017-09-25T01:49:52.266Z,0
2017-09-25T01:51:01.134Z,0
2017-09-25T01:52:10.001Z,0
2017-09-25T01:53:18.869Z,0
2017-09-25T01:54:28.401Z,0
2017-09-25T01:55:37.595Z,0
2017-09-25T01:56:46.135Z,0
2017-09-25T01:57:54.997Z,0
2017-09-25T01:59:03.541Z,0
2017-09-25T02:00:12.086Z,0
2017-09-25T02:01:20.632Z,0
2017-09-25T02:02:29.178Z,0
2017-09-25T02:03:37.720Z,0
2017-09-25T02:04:46.586Z,0
2017-09-25T02:05:55.460Z,0
2017-09-25T02:07:04.651Z,0
2017-09-25T02:08:13.196Z,0
2017-09-25T02:09:21.741Z,0
2017-09-25T02:10:30.299Z,0
2017-09-25T02:11:38.841Z,0
2017-09-25T02:12:47.386Z,0
2017-09-25T02:13:55.927Z,0
2017-09-25T02:15:04.791Z,0
2017-09-25T02:16:13.659Z,0
2017-09-25T02:17:22.198Z,0
2017-09-25T02:18:30.739Z,0
2017-09-25T02:19:39.604Z,0
2017-09-25T02:20:48.970Z,0
2017-09-25T02:21:57.512Z,0
2017-09-25T02:23:06.376Z,0
2017-09-25T02:24:15.241Z,0
2017-09-25T02:25:23.784Z,0
2017-09-25T02:26:32.327Z,0
2017-09-25T02:27:41.193Z,0
2017-09-25T02:28:50.059Z,0
2017-09-25T02:29:58.923Z,0
2017-09-25T02:31:07.464Z,0
2017-09-25T02:32:16.328Z,0
2017-09-25T02:33:24.872Z,0
2017-09-25T02:34:33.915Z,0
2017-09-25T02:35:43.035Z,0
2017-09-25T02:36:51.658Z,0
2017-09-25T02:38:01.130Z,0
2017-09-25T02:39:09.995Z,0
2017-09-25T02:40:18.735Z,0
2017-09-25T02:41:27.384Z,0
2017-09-25T02:42:36.048Z,0
2017-09-25T02:43:44.595Z,0
2017-09-25T02:44:54.105Z,0
2017-09-25T02:46:02.782Z,0
2017-09-25T02:47:11.798Z,0
2017-09-25T02:48:21.409Z,0
2017-09-25T02:49:30.751Z,0
2017-09-25T02:50:39.943Z,0
2017-09-25T02:51:48.487Z,0
2017-09-25T02:52:57.676Z,0
2017-09-25T02:54:06.798Z,0
2017-09-25T02:55:15.340Z,0
2017-09-25T02:56:23.879Z,0
2017-09-25T02:57:32.421Z,0
2017-09-25T02:58:41.288Z,0
2017-09-25T02:59:50.154Z,0
2017-09-25T03:00:59.020Z,0
2017-09-25T03:02:07.562Z,0
2017-09-25T03:03:16.430Z,0
2017-09-25T03:04:25.294Z,0
2017-09-25T03:05:34.157Z,0
2017-09-25T03:06:43.025Z,0
2017-09-25T03:07:51.569Z,0
2017-09-25T03:09:00.111Z,0
2017-09-25T03:10:09.003Z,0
2017-09-25T03:11:17.868Z,0
2017-09-25T03:12:26.423Z,0
2017-09-25T03:13:35.289Z,0
2017-09-25T03:14:44.480Z,0
2017-09-25T03:15:53.344Z,0
2017-09-25T03:17:01.888Z,0
2017-09-25T03:18:10.432Z,0
2017-09-25T03:19:18.974Z,0
2017-09-25T03:20:27.516Z,0
2017-09-25T03:21:36.060Z,0
2017-09-25T03:22:44.604Z,0
2017-09-25T03:23:53.468Z,0
2017-09-25T03:25:02.014Z,0
2017-09-25T03:26:11.202Z,0
2017-09-25T03:27:20.394Z,0
2017-09-25T03:28:28.933Z,0
2017-09-25T03:29:37.796Z,0
2017-09-25T03:30:46.340Z,0
2017-09-25T03:31:54.879Z,0
2017-09-25T03:33:04.390Z,0
2017-09-25T03:34:13.255Z,0
2017-09-25T03:35:22.245Z,0
2017-09-25T03:36:31.433Z,0
2017-09-25T03:37:40.618Z,0
2017-09-25T03:38:49.479Z,0
2017-09-25T03:39:58.346Z,0
2017-09-25T03:41:06.887Z,0
2017-09-25T03:42:16.071Z,0
2017-09-25T03:43:24.938Z,0
2017-09-25T03:44:33.802Z,0
2017-09-25T03:45:42.992Z,0
2017-09-25T03:46:52.184Z,0
2017-09-25T03:48:00.727Z,0
2017-09-25T03:49:09.910Z,0
2017-09-25T03:50:18.454Z,0
2017-09-25T03:51:27.319Z,0
2017-09-25T03:52:36.183Z,0
2017-09-25T03:53:44.723Z,0
2017-09-25T03:54:53.668Z,0
2017-09-25T03:56:02.862Z,0
2017-09-25T03:57:12.050Z,0
2017-09-25T03:58:21.241Z,0
2017-09-25T03:59:29.782Z,0
2017-09-25T04:00:38.642Z,0
2017-09-25T04:01:47.187Z,0
2017-09-25T04:02:56.379Z,0
2017-09-25T04:04:04.922Z,0
2017-09-25T04:05:13.469Z,0
2017-09-25T04:06:22.661Z,0
2017-09-25T04:07:31.844Z,0
2017-09-25T04:08:40.385Z,0
2017-09-25T04:09:48.926Z,0
2017-09-25T04:10:57.470Z,0
2017-09-25T04:12:06.340Z,0
2017-09-25T04:13:15.532Z,0
2017-09-25T04:14:24.426Z,0
2017-09-25T04:15:32.942Z,0
2017-09-25T04:16:41.486Z,0
2017-09-25T04:17:50.027Z,0
2017-09-25T04:18:58.896Z,0
2017-09-25T04:20:07.440Z,0
2017-09-25T04:21:15.985Z,0
2017-09-25T04:22:24.527Z,0
2017-09-25T04:23:33.071Z,0
2017-09-25T04:24:41.936Z,0
2017-09-25T04:25:50.478Z,0
2017-09-25T04:26:59.021Z,0
2017-09-25T04:28:08.211Z,0
2017-09-25T04:29:16.752Z,0
2017-09-25T04:30:25.938Z,0
2017-09-25T04:31:35.128Z,0
2017-09-25T04:32:43.671Z,0
2017-09-25T04:33:52.537Z,0
2017-09-25T04:35:01.081Z,0
2017-09-25T04:36:09.624Z,0
2017-09-25T04:37:18.490Z,0
2017-09-25T04:38:27.032Z,0
2017-09-25T04:39:35.897Z,0
2017-09-25T04:40:44.437Z,0
2017-09-25T04:41:53.304Z,0
2017-09-25T04:43:02.170Z,0
2017-09-25T04:44:11.353Z,0
2017-09-25T04:45:19.894Z,0
2017-09-25T04:46:28.755Z,0
2017-09-25T04:47:37.623Z,0
2017-09-25T04:48:46.168Z,0
2017-09-25T04:49:55.354Z,0
2017-09-25T04:51:03.893Z,0
2017-09-25T04:52:12.758Z,0
2017-09-25T04:53:21.947Z,0
2017-09-25T04:54:30.496Z,0
2017-09-25T04:55:39.684Z,0
2017-09-25T04:56:48.225Z,0
2017-09-25T04:57:56.768Z,0
2017-09-25T04:59:05.310Z,0
2017-09-25T05:00:13.850Z,0
2017-09-25T05:01:23.367Z,0
2017-09-25T05:02:31.910Z,0
2017-09-25T05:03:40.452Z,0
2017-09-25T05:04:49.320Z,0
2017-09-25T05:05:57.864Z,0
2017-09-25T05:07:06.728Z,0
2017-09-25T05:08:15.596Z,0
2017-09-25T05:09:24.139Z,0
2017-09-25T05:10:32.678Z,0
2017-09-25T05:11:41.545Z,0
2017-09-25T05:12:50.408Z,0
2017-09-25T05:13:59.271Z,0
2017-09-25T05:15:08.144Z,0
2017-09-25T05:16:17.011Z,0
2017-09-25T05:17:26.200Z,0
2017-09-25T05:18:35.063Z,0
2017-09-25T05:19:43.927Z,0
2017-09-25T05:20:53.117Z,0
2017-09-25T05:22:01.664Z,0
2017-09-25T05:23:10.530Z,0
2017-09-25T05:24:19.399Z,0
2017-09-25T05:25:28.264Z,0
2017-09-25T05:26:37.461Z,0
2017-09-25T05:27:46.325Z,0
2017-09-25T05:28:54.868Z,0
2017-09-25T05:30:03.741Z,5
2017-09-25T05:31:12.278Z,5
2017-09-25T05:32:21.151Z,5
2017-09-25T05:33:29.702Z,5
2017-09-25T05:34:38.243Z,5
2017-09-25T05:35:46.791Z,5
2017-09-25T05:36:55.334Z,10
2017-09-25T05:38:04.200Z,10
2017-09-25T05:39:12.738Z,10
2017-09-25T05:40:21.606Z,10
2017-09-25T05:41:30.471Z,10
2017-09-25T05:42:39.660Z,10
2017-09-25T05:43:48.532Z,10
2017-09-25T05:44:59.486Z,15
2017-09-25T05:46:11.317Z,15
2017-09-25T05:47:22.912Z,15
2017-09-25T05:48:32.310Z,15
2017-09-25T05:49:40.852Z,15
2017-09-25T05:50:49.394Z,15
2017-09-25T05:51:57.936Z,15
2017-09-25T05:53:06.801Z,15
2017-09-25T05:54:15.349Z,15
2017-09-25T05:55:24.862Z,20
2017-09-25T05:56:33.405Z,20
2017-09-25T05:57:42.594Z,15
2017-09-25T05:58:51.467Z,20
2017-09-25T06:00:00.010Z,20
2017-09-25T06:01:08.554Z,20
2017-09-25T06:02:17.419Z,20
2017-09-25T06:03:26.924Z,20
2017-09-25T06:04:35.795Z,20
2017-09-25T06:05:44.337Z,25
2017-09-25T06:06:52.880Z,25
2017-09-25T06:08:01.750Z,25
2017-09-25T06:09:10.613Z,25
2017-09-25T06:10:19.486Z,25
2017-09-25T06:11:29.002Z,25
2017-09-25T06:12:37.869Z,25
2017-09-25T06:13:46.736Z,25
2017-09-25T06:14:55.601Z,25
2017-09-25T06:16:04.474Z,25
2017-09-25T06:17:13.033Z,30
2017-09-25T06:18:21.577Z,25
2017-09-25T06:19:30.122Z,30
2017-09-25T06:20:38.668Z,30
2017-09-25T06:21:47.214Z,35
2017-09-25T06:22:55.795Z,40
2017-09-25T06:24:04.624Z,45
2017-09-25T06:25:13.166Z,45
2017-09-25T06:26:21.715Z,45
2017-09-25T06:27:30.262Z,45
2017-09-25T06:28:39.773Z,45
2017-09-25T06:29:48.318Z,45
2017-09-25T06:30:57.187Z,55
2017-09-25T06:32:05.729Z,50
2017-09-25T06:33:14.271Z,50
2017-09-25T06:34:22.812Z,55
2017-09-25T06:35:32.041Z,45
2017-09-25T06:36:40.583Z,45
2017-09-25T06:37:49.225Z,45
2017-09-25T06:38:58.144Z,50
2017-09-25T06:40:07.227Z,50
2017-09-25T06:41:16.093Z,55
2017-09-25T06:42:25.092Z,60
2017-09-25T06:43:33.694Z,70
2017-09-25T06:44:42.250Z,85
2017-09-25T06:45:51.115Z,80
2017-09-25T06:46:59.982Z,75
2017-09-25T06:48:09.174Z,90
2017-09-25T06:49:18.042Z,75
2017-09-25T06:50:26.938Z,70
2017-09-25T06:51:35.806Z,90
2017-09-25T06:52:44.997Z,70
2017-09-25T06:53:53.865Z,75
2017-09-25T06:55:03.065Z,80
2017-09-25T06:56:11.616Z,80
2017-09-25T06:57:21.137Z,80
2017-09-25T06:58:29.684Z,75
2017-09-25T06:59:38.882Z,80
2017-09-25T07:00:47.999Z,80
2017-09-25T07:01:57.195Z,80
2017-09-25T07:03:06.066Z,90
2017-09-25T07:04:14.941Z,85
2017-09-25T07:05:23.517Z,90
2017-09-25T07:06:32.060Z,85
2017-09-25T07:07:41.252Z,85
2017-09-25T07:08:49.797Z,100
2017-09-25T07:09:58.680Z,100
2017-09-25T07:11:07.548Z,115
2017-09-25T07:12:16.413Z,105
2017-09-25T07:13:24.958Z,100
2017-09-25T07:14:33.825Z,120
2017-09-25T07:15:42.380Z,120
2017-09-25T07:16:50.922Z,120
2017-09-25T07:17:59.471Z,135
2017-09-25T07:19:08.014Z,135
2017-09-25T07:20:16.670Z,125
2017-09-25T07:21:25.775Z,135
2017-09-25T07:22:34.476Z,145
2017-09-25T07:23:43.671Z,145
2017-09-25T07:24:56.083Z,135
2017-09-25T07:26:04.955Z,130
2017-09-25T07:27:13.833Z,125
2017-09-25T07:28:22.386Z,140
2017-09-25T07:29:31.263Z,145
2017-09-25T07:30:39.807Z,155
2017-09-25T07:31:48.675Z,155
2017-09-25T07:32:57.543Z,160
2017-09-25T07:34:06.102Z,145
2017-09-25T07:35:14.652Z,140
2017-09-25T07:36:23.532Z,140
2017-09-25T07:37:32.410Z,145
2017-09-25T07:38:40.973Z,165
2017-09-25T07:39:49.588Z,170
2017-09-25T07:40:58.191Z,170
2017-09-25T07:42:07.392Z,145
2017-09-25T07:43:16.584Z,155
2017-09-25T07:44:25.468Z,185
2017-09-25T07:45:34.023Z,175
2017-09-25T07:46:43.214Z,165
2017-09-25T07:47:52.084Z,145
2017-09-25T07:49:00.956Z,135
2017-09-25T07:50:09.836Z,130
2017-09-25T07:51:18.712Z,125
2017-09-25T07:52:27.254Z,130
2017-09-25T07:53:36.396Z,145
2017-09-25T07:54:44.943Z,145
2017-09-25T07:55:53.482Z,140
2017-09-25T07:57:02.451Z,130
2017-09-25T07:58:11.643Z,125
2017-09-25T07:59:20.188Z,125
2017-09-25T08:00:29.055Z,125
2017-09-25T08:01:38.599Z,125
2017-09-25T08:02:47.164Z,135
2017-09-25T08:03:57.173Z,135
2017-09-25T08:05:06.581Z,130
2017-09-25T08:06:16.404Z,140
2017-09-25T08:07:24.958Z,145
2017-09-25T08:08:35.157Z,145
2017-09-25T08:09:44.030Z,145
2017-09-25T08:10:53.069Z,145
2017-09-25T08:12:01.935Z,140
2017-09-25T08:13:10.477Z,140
2017-09-25T08:14:19.023Z,140
2017-09-25T08:15:27.889Z,140
2017-09-25T08:16:36.434Z,140
2017-09-25T08:17:45.305Z,130
2017-09-25T08:18:53.848Z,125
2017-09-25T08:20:02.722Z,120
2017-09-25T08:21:11.270Z,115
2017-09-25T08:22:21.561Z,105
2017-09-25T08:23:30.618Z,100
2017-09-25T08:24:39.627Z,100
2017-09-25T08:25:49.006Z,110
2017-09-25T08:26:57.925Z,125
2017-09-25T08:28:06.876Z,140
2017-09-25T08:29:15.782Z,150
2017-09-25T08:30:24.653Z,160
2017-09-25T08:31:33.518Z,185
2017-09-25T08:32:42.736Z,185
2017-09-25T08:33:51.497Z,180
2017-09-25T08:35:00.755Z,195
2017-09-25T08:36:09.576Z,190
2017-09-25T08:37:18.466Z,170
2017-09-25T08:38:27.013Z,155
2017-09-25T08:39:35.886Z,140
2017-09-25T08:40:44.761Z,145
2017-09-25T08:41:53.635Z,140
2017-09-25T08:43:02.504Z,140
2017-09-25T08:44:11.066Z,145
2017-09-25T08:45:19.861Z,140
2017-09-25T08:46:29.422Z,140
2017-09-25T08:47:38.318Z,160
2017-09-25T08:48:47.455Z,205
2017-09-25T08:49:57.593Z,240
2017-09-25T08:51:06.461Z,240
2017-09-25T08:52:15.011Z,220
2017-09-25T08:53:23.885Z,220
2017-09-25T08:54:32.432Z,230
2017-09-25T08:55:41.309Z,230
2017-09-25T08:56:50.306Z,220
2017-09-25T08:57:59.242Z,215
2017-09-25T08:59:08.072Z,235
2017-09-25T09:00:16.621Z,225
2017-09-25T09:01:25.171Z,215
2017-09-25T09:02:34.043Z,220
2017-09-25T09:03:42.589Z,210
2017-09-25T09:04:51.784Z,205
2017-09-25T09:06:00.349Z,210
2017-09-25T09:07:08.950Z,205
2017-09-25T09:08:17.822Z,215
2017-09-25T09:09:26.439Z,240
2017-09-25T09:10:34.989Z,245
2017-09-25T09:11:43.535Z,240
2017-09-25T09:12:52.412Z,240
2017-09-25T09:14:01.283Z,230
2017-09-25T09:15:10.164Z,230
2017-09-25T09:16:19.349Z,235
2017-09-25T09:17:27.894Z,220
2017-09-25T09:18:36.830Z,200
2017-09-25T09:19:45.381Z,185
2017-09-25T09:20:54.898Z,185
2017-09-25T09:22:04.162Z,200
2017-09-25T09:23:13.355Z,225
2017-09-25T09:24:22.307Z,250
2017-09-25T09:25:31.068Z,305
2017-09-25T09:26:39.940Z,345
2017-09-25T09:27:48.510Z,350
2017-09-25T09:28:57.645Z,310
2017-09-25T09:30:06.221Z,270
2017-09-25T09:31:15.088Z,250
2017-09-25T09:32:23.643Z,240
2017-09-25T09:33:32.198Z,250
2017-09-25T09:34:41.088Z,265
2017-09-25T09:35:49.641Z,280
2017-09-25T09:36:58.511Z,320
2017-09-25T09:38:07.711Z,345
2017-09-25T09:39:16.258Z,350
2017-09-25T09:40:25.132Z,330
2017-09-25T09:41:34.005Z,290
2017-09-25T09:42:43.202Z,280
2017-09-25T09:43:51.752Z,250
2017-09-25T09:45:00.301Z,250
2017-09-25T09:46:09.180Z,255
2017-09-25T09:47:18.369Z,260
2017-09-25T09:48:26.916Z,275
2017-09-25T09:49:35.781Z,320
2017-09-25T09:50:44.665Z,280
2017-09-25T09:51:53.213Z,250
2017-09-25T09:53:02.083Z,205
2017-09-25T09:54:10.636Z,195
2017-09-25T09:55:19.179Z,195
2017-09-25T09:56:28.367Z,205
2017-09-25T09:57:36.913Z,210
2017-09-25T09:58:45.795Z,205
2017-09-25T09:59:54.339Z,200
2017-09-25T10:01:02.889Z,190
2017-09-25T10:02:11.760Z,185
2017-09-25T10:03:20.307Z,190
2017-09-25T10:04:29.184Z,190
2017-09-25T10:05:38.377Z,195
2017-09-25T10:06:46.923Z,185
2017-09-25T10:07:55.790Z,185
2017-09-25T10:09:04.996Z,200
2017-09-25T10:10:13.544Z,180
2017-09-25T10:11:22.739Z,210
2017-09-25T10:12:31.283Z,215
2017-09-25T10:13:40.153Z,210
2017-09-25T10:14:48.699Z,265
2017-09-25T10:15:57.568Z,310
2017-09-25T10:17:06.125Z,270
2017-09-25T10:18:16.210Z,240
2017-09-25T10:19:25.407Z,205
2017-09-25T10:20:34.279Z,205
2017-09-25T10:21:44.550Z,200
2017-09-25T10:22:53.566Z,195
2017-09-25T10:24:02.353Z,185
2017-09-25T10:25:11.079Z,195
2017-09-25T10:26:19.951Z,210
2017-09-25T10:27:28.921Z,180
2017-09-25T10:28:37.813Z,170
2017-09-25T10:29:46.682Z,195
2017-09-25T10:30:55.879Z,210
2017-09-25T10:32:05.621Z,200
2017-09-25T10:33:14.698Z,175
2017-09-25T10:34:23.572Z,185
2017-09-25T10:35:32.116Z,225
2017-09-25T10:36:41.005Z,245
2017-09-25T10:37:50.525Z,215
2017-09-25T10:38:59.069Z,250
2017-09-25T10:40:07.617Z,310
2017-09-25T10:41:16.488Z,325
2017-09-25T10:42:25.034Z,340
2017-09-25T10:43:34.224Z,315
2017-09-25T10:44:42.768Z,280
2017-09-25T10:45:51.317Z,245
2017-09-25T10:47:00.190Z,245
2017-09-25T10:48:08.752Z,230
2017-09-25T10:49:17.642Z,215
2017-09-25T10:50:26.200Z,205
2017-09-25T10:51:34.754Z,210
2017-09-25T10:52:43.305Z,210
2017-09-25T10:53:52.187Z,195
2017-09-25T10:55:01.068Z,190
2017-09-25T10:56:09.959Z,210
2017-09-25T10:57:18.516Z,225
2017-09-25T10:58:27.707Z,240
2017-09-25T10:59:36.255Z,295
2017-09-25T11:00:44.803Z,320
2017-09-25T11:01:53.673Z,320
2017-09-25T11:03:02.541Z,315
2017-09-25T11:04:11.094Z,250
2017-09-25T11:05:19.963Z,190
2017-09-25T11:06:28.834Z,185
2017-09-25T11:07:37.499Z,175
2017-09-25T11:08:46.048Z,190
2017-09-25T11:09:55.242Z,205
2017-09-25T11:11:04.131Z,215
2017-09-25T11:12:13.005Z,230
2017-09-25T11:13:21.584Z,245
2017-09-25T11:14:30.447Z,260
2017-09-25T11:15:38.992Z,285
2017-09-25T11:16:47.538Z,275
2017-09-25T11:17:56.089Z,245
2017-09-25T11:19:04.962Z,205
2017-09-25T11:20:14.163Z,180
2017-09-25T11:21:23.033Z,175
2017-09-25T11:22:31.579Z,170
2017-09-25T11:23:40.456Z,170
2017-09-25T11:24:49.004Z,170
2017-09-25T11:25:57.877Z,170
2017-09-25T11:27:06.427Z,175
2017-09-25T11:28:14.974Z,180
2017-09-25T11:29:23.848Z,200
2017-09-25T11:30:33.041Z,190
2017-09-25T11:31:41.919Z,205
2017-09-25T11:32:51.109Z,200
2017-09-25T11:33:59.654Z,195
2017-09-25T11:35:08.525Z,170
2017-09-25T11:36:17.071Z,170
2017-09-25T11:37:25.952Z,195
2017-09-25T11:38:34.932Z,220
2017-09-25T11:39:44.129Z,260
2017-09-25T11:40:53.323Z,285
2017-09-25T11:42:01.872Z,280
2017-09-25T11:43:10.744Z,275
2017-09-25T11:44:19.614Z,270
2017-09-25T11:45:28.494Z,255
2017-09-25T11:46:37.041Z,250
2017-09-25T11:47:45.910Z,240
2017-09-25T11:48:54.782Z,235
2017-09-25T11:50:03.336Z,245
2017-09-25T11:51:12.539Z,280
2017-09-25T11:52:21.410Z,310
2017-09-25T11:53:30.286Z,315
2017-09-25T11:54:39.161Z,320
2017-09-25T11:55:47.709Z,330
2017-09-25T11:56:56.256Z,325
2017-09-25T11:58:05.132Z,310
2017-09-25T11:59:13.679Z,320
2017-09-25T12:00:22.549Z,340
2017-09-25T12:01:31.099Z,350
2017-09-25T12:02:39.970Z,320
2017-09-25T12:03:48.521Z,305
2017-09-25T12:04:57.069Z,290
2017-09-25T12:06:05.940Z,285
2017-09-25T12:07:14.813Z,300
2017-09-25T12:08:23.683Z,295
2017-09-25T12:09:32.552Z,280
2017-09-25T12:10:41.425Z,270
2017-09-25T12:11:50.301Z,260
2017-09-25T12:13:00.234Z,265
2017-09-25T12:14:09.130Z,265
2017-09-25T12:15:17.679Z,265
2017-09-25T12:16:26.344Z,270
2017-09-25T12:17:35.220Z,285
2017-09-25T12:18:43.767Z,300
2017-09-25T12:19:52.661Z,315
2017-09-25T12:21:01.230Z,310
2017-09-25T12:22:09.776Z,300
2017-09-25T12:23:18.324Z,290
2017-09-25T12:24:27.201Z,295
2017-09-25T12:25:36.074Z,300
2017-09-25T12:26:45.269Z,305
2017-09-25T12:27:53.817Z,300
2017-09-25T12:29:02.688Z,305
2017-09-25T12:30:11.564Z,290
2017-09-25T12:31:20.114Z,280
2017-09-25T12:32:28.666Z,265
2017-09-25T12:33:37.865Z,265
2017-09-25T12:34:46.420Z,260
2017-09-25T12:35:55.289Z,260
2017-09-25T12:37:03.838Z,260
2017-09-25T12:38:12.388Z,255
2017-09-25T12:39:21.260Z,250
2017-09-25T12:40:29.814Z,235
2017-09-25T12:41:38.361Z,230
2017-09-25T12:42:47.271Z,220
2017-09-25T12:43:56.464Z,220
2017-09-25T12:45:05.687Z,220
2017-09-25T12:46:14.237Z,220
2017-09-25T12:47:22.783Z,225
2017-09-25T12:48:31.332Z,230
2017-09-25T12:49:39.888Z,235
2017-09-25T12:50:48.762Z,240
2017-09-25T12:51:57.311Z,245
2017-09-25T12:53:05.877Z,250
2017-09-25T12:54:14.747Z,255
2017-09-25T12:55:23.300Z,270
2017-09-25T12:56:32.900Z,270
2017-09-25T12:57:41.448Z,270
2017-09-25T12:58:50.006Z,275
2017-09-25T12:59:58.871Z,290
2017-09-25T13:01:07.744Z,280
2017-09-25T13:02:16.938Z,285
2017-09-25T13:03:25.819Z,290
2017-09-25T13:04:34.366Z,285
2017-09-25T13:05:43.239Z,285
2017-09-25T13:06:52.117Z,285
2017-09-25T13:08:00.996Z,265
2017-09-25T13:09:09.545Z,235
2017-09-25T13:10:18.091Z,225
2017-09-25T13:11:26.961Z,230
2017-09-25T13:12:36.161Z,235
2017-09-25T13:13:44.714Z,240
2017-09-25T13:14:53.715Z,245
2017-09-25T13:16:02.266Z,245
2017-09-25T13:17:10.817Z,235
2017-09-25T13:18:19.369Z,240
2017-09-25T13:19:27.916Z,225
2017-09-25T13:20:37.083Z,220
2017-09-25T13:21:45.952Z,230
2017-09-25T13:22:55.154Z,235
2017-09-25T13:24:04.356Z,250
2017-09-25T13:25:13.233Z,265
2017-09-25T13:26:21.783Z,275
2017-09-25T13:27:30.657Z,270
2017-09-25T13:28:39.529Z,265
2017-09-25T13:29:48.238Z,260
2017-09-25T13:30:56.784Z,250
2017-09-25T13:32:05.340Z,240
2017-09-25T13:33:13.888Z,240
2017-09-25T13:34:23.104Z,245
2017-09-25T13:35:32.300Z,245
2017-09-25T13:36:41.179Z,240
2017-09-25T13:37:49.747Z,230
2017-09-25T13:38:58.295Z,220
2017-09-25T13:40:06.841Z,215
2017-09-25T13:41:16.044Z,210
2017-09-25T13:42:24.594Z,210
2017-09-25T13:43:33.470Z,215
2017-09-25T13:44:42.018Z,215
2017-09-25T13:45:50.891Z,215
2017-09-25T13:46:59.764Z,220
2017-09-25T13:48:08.960Z,225
2017-09-25T13:49:17.508Z,225
2017-09-25T13:50:26.379Z,220
2017-09-25T13:51:35.250Z,210
2017-09-25T13:52:44.120Z,210
2017-09-25T13:53:52.668Z,210
2017-09-25T13:55:02.193Z,210
2017-09-25T13:56:10.752Z,210
2017-09-25T13:57:19.303Z,210
2017-09-25T13:58:27.852Z,210
2017-09-25T14:02:53.553Z,210
2017-09-25T14:04:02.433Z,205
2017-09-25T14:05:10.987Z,195
2017-09-25T14:06:19.537Z,195
2017-09-25T14:07:28.097Z,195
2017-09-25T14:08:36.643Z,200
2017-09-25T14:09:45.222Z,205
2017-09-25T14:10:54.416Z,210
2017-09-25T14:12:02.967Z,210
2017-09-25T14:13:11.847Z,215
2017-09-25T14:14:20.728Z,215
2017-09-25T14:15:30.244Z,215
2017-09-25T14:16:39.438Z,215
2017-09-25T14:17:48.305Z,215
2017-09-25T14:18:57.178Z,215
2017-09-25T14:20:05.725Z,215
2017-09-25T14:21:14.275Z,210
2017-09-25T14:22:23.146Z,210
2017-09-25T14:23:31.694Z,200
2017-09-25T14:24:40.566Z,195
2017-09-25T14:25:49.779Z,190
2017-09-25T14:26:58.981Z,185
2017-09-25T14:28:07.541Z,180
2017-09-25T14:29:16.743Z,180
2017-09-25T14:30:25.615Z,180
2017-09-25T14:31:34.488Z,180
2017-09-25T14:32:43.036Z,175
2017-09-25T14:33:51.580Z,175
2017-09-25T14:35:00.128Z,175
2017-09-25T14:36:08.677Z,175
2017-09-25T14:37:17.553Z,175
2017-09-25T14:38:26.426Z,170
2017-09-25T14:39:35.625Z,165
2017-09-25T14:40:44.498Z,165
2017-09-25T14:41:53.698Z,165
2017-09-25T14:43:02.568Z,160
2017-09-25T14:44:11.115Z,160
2017-09-25T14:45:20.313Z,160
2017-09-25T14:46:28.870Z,165
2017-09-25T14:47:37.740Z,160
2017-09-25T14:48:46.285Z,150
2017-09-25T14:49:54.830Z,145
2017-09-25T14:51:03.375Z,145
2017-09-25T14:52:12.249Z,140
2017-09-25T14:53:20.798Z,135
2017-09-25T14:54:29.673Z,130
2017-09-25T14:55:38.221Z,125
2017-09-25T14:56:46.765Z,120
2017-09-25T14:57:55.960Z,120
2017-09-25T14:59:05.481Z,120
2017-09-25T15:00:14.027Z,120
2017-09-25T15:01:22.603Z,115
2017-09-25T15:02:31.153Z,110
2017-09-25T15:03:40.022Z,105
2017-09-25T15:04:48.571Z,105
2017-09-25T15:05:57.125Z,100
2017-09-25T15:07:05.998Z,100
2017-09-25T15:08:14.545Z,100
2017-09-25T15:09:23.416Z,100
2017-09-25T15:10:31.962Z,100
2017-09-25T15:11:40.511Z,100
2017-09-25T15:12:49.059Z,105
2017-09-25T15:13:58.241Z,105
2017-09-25T15:15:06.781Z,100
2017-09-25T15:16:15.331Z,95
2017-09-25T15:17:24.576Z,95
2017-09-25T15:18:33.127Z,90
2017-09-25T15:19:41.677Z,90
2017-09-25T15:20:50.225Z,90
2017-09-25T15:21:59.421Z,95
2017-09-25T15:23:08.595Z,95
2017-09-25T15:24:17.468Z,100
2017-09-25T15:25:26.663Z,105
2017-09-25T15:26:35.210Z,110
2017-09-25T15:27:44.077Z,120
2017-09-25T15:28:52.625Z,120
2017-09-25T15:30:01.177Z,125
2017-09-25T15:31:10.047Z,120
2017-09-25T15:32:18.917Z,120
2017-09-25T15:33:27.786Z,120
2017-09-25T15:34:36.332Z,120
2017-09-25T15:35:44.880Z,120
2017-09-25T15:36:54.072Z,115
2017-09-25T15:38:03.270Z,110
2017-09-25T15:39:12.146Z,110
2017-09-25T15:40:21.020Z,105
2017-09-25T15:41:29.893Z,105
2017-09-25T15:42:38.438Z,105
2017-09-25T15:43:47.312Z,105
2017-09-25T15:44:56.181Z,110
2017-09-25T15:46:05.377Z,115
2017-09-25T15:47:14.954Z,110
2017-09-25T15:48:23.827Z,110
2017-09-25T15:49:32.377Z,105
2017-09-25T15:50:41.249Z,105
2017-09-25T15:51:49.797Z,105
2017-09-25T15:52:58.667Z,100
2017-09-25T15:54:07.212Z,100
2017-09-25T15:55:15.760Z,95
2017-09-25T15:56:24.956Z,95
2017-09-25T15:57:33.506Z,90
2017-09-25T15:58:42.701Z,90
2017-09-25T15:59:51.255Z,85
2017-09-25T16:01:00.124Z,85
2017-09-25T16:02:09.320Z,80
2017-09-25T16:03:18.194Z,80
2017-09-25T16:04:26.741Z,80
2017-09-25T16:05:35.291Z,80
2017-09-25T16:06:44.163Z,80
2017-09-25T16:07:52.713Z,80
2017-09-25T16:09:01.582Z,75
2017-09-25T16:10:10.131Z,75
2017-09-25T16:11:19.324Z,75
2017-09-25T16:12:27.870Z,75
2017-09-25T16:13:36.421Z,75
2017-09-25T16:14:44.972Z,70
2017-09-25T16:15:54.175Z,70
2017-09-25T16:17:02.724Z,70
2017-09-25T16:18:11.270Z,70
2017-09-25T16:19:20.143Z,65